Time;durP1;ratioP1;P1;durP2;ratioP2;P2;SDS_P1;SDS_P2;PMS_P1;PMS_P2;Temp;Humidity;BMP_temperature;BMP_pressure;BME280_temperature;BME280_humidity;BME280_pressure;Samples;Min_cycle;Max_cycle;Signal;HPM_P1;HPM_P2
2023/02/10 00:00:45;;;;;;;16.25;7.25;;;;;;;-146.47;100.00;65468.63;4706328;30;20057;-73
2023/02/10 00:03:24;;;;;;;18.50;8.93;;;;;;;-146.47;100.00;65468.63;4702604;30;20077;-73
2023/02/10 00:05:49;;;;;;;17.23;8.13;;;;;;;-146.47;100.00;65468.63;4706032;30;20139;-73
2023/02/10 00:08:15;;;;;;;20.30;9.30;;;;;;;-146.47;100.00;65468.63;4699135;30;20057;-73
2023/02/10 00:10:40;;;;;;;18.23;7.97;;;;;;;-146.47;100.00;65468.63;4705558;30;20042;-74
2023/02/10 00:13:06;;;;;;;21.30;8.00;;;;;;;-146.47;100.00;65468.63;4703747;30;20053;-73
2023/02/10 00:15:31;;;;;;;19.27;8.50;;;;;;;-146.47;100.00;65468.63;4698952;30;20068;-73
2023/02/10 00:17:57;;;;;;;20.58;7.90;;;;;;;-146.47;100.00;65468.63;4699253;30;20053;-73
2023/02/10 00:20:22;;;;;;;17.08;7.53;;;;;;;-146.47;100.00;65468.63;4703097;30;20049;-73
2023/02/10 00:22:48;;;;;;;12.43;6.53;;;;;;;-146.47;100.00;65468.63;4704060;30;20053;-73
2023/02/10 00:25:13;;;;;;;16.10;7.63;;;;;;;-146.47;100.00;65468.63;4701382;30;20183;-73
2023/02/10 00:27:39;;;;;;;16.55;7.18;;;;;;;-146.47;100.00;65468.63;4698922;30;20419;-72
2023/02/10 00:30:05;;;;;;;19.17;8.18;;;;;;;-146.47;100.00;65468.63;4702904;30;20473;-73
2023/02/10 00:32:30;;;;;;;25.08;8.02;;;;;;;-146.47;100.00;65468.63;4711564;30;20502;-73
2023/02/10 00:34:56;;;;;;;17.17;8.38;;;;;;;-146.47;100.00;65468.63;4705343;30;20060;-73
2023/02/10 00:37:21;;;;;;;19.33;8.00;;;;;;;-146.47;100.00;65468.63;4699755;30;20065;-73
2023/02/10 00:39:47;;;;;;;16.55;7.32;;;;;;;-146.47;100.00;65468.63;4700740;30;20056;-73
2023/02/10 00:42:12;;;;;;;16.65;7.78;;;;;;;-146.47;100.00;65468.63;4700910;30;20053;-73
2023/02/10 00:44:38;;;;;;;16.30;7.15;;;;;;;-146.47;100.00;65468.63;4698689;30;20111;-73
2023/02/10 00:47:03;;;;;;;19.35;8.27;;;;;;;-146.47;100.00;65468.63;4699572;30;20057;-73
2023/02/10 00:49:29;;;;;;;16.02;7.22;;;;;;;-146.47;100.00;65468.63;4701354;30;20053;-72
2023/02/10 00:51:54;;;;;;;17.55;8.00;;;;;;;-146.47;100.00;65468.63;4700295;30;20140;-73
2023/02/10 00:54:20;;;;;;;18.38;8.25;;;;;;;-146.47;100.00;65468.63;4698266;30;20442;-73
2023/02/10 00:56:46;;;;;;;17.67;7.85;;;;;;;-146.47;100.00;65468.63;4698535;30;20046;-73
2023/02/10 00:59:15;;;;;;;15.85;7.00;;;;;;;-146.47;100.00;65468.63;4713017;30;20045;-73
2023/02/10 01:01:41;;;;;;;19.40;7.38;;;;;;;-146.47;100.00;65468.63;4700592;30;20049;-73
2023/02/10 01:04:06;;;;;;;17.55;7.50;;;;;;;-146.47;100.00;65468.63;4702212;30;20054;-73
2023/02/10 01:06:32;;;;;;;18.27;8.68;;;;;;;-146.47;100.00;65468.63;4698193;30;20080;-73
2023/02/10 01:08:58;;;;;;;20.42;6.57;;;;;;;-146.47;100.00;65468.63;4698459;30;20069;-73
2023/02/10 01:11:23;;;;;;;19.00;7.70;;;;;;;-146.47;100.00;65468.63;4708199;30;20140;-73
2023/02/10 01:13:49;;;;;;;18.48;8.55;;;;;;;-146.47;100.00;65468.63;4698257;30;20050;-73
2023/02/10 01:16:16;;;;;;;18.65;7.15;;;;;;;-146.47;100.00;65468.63;4698155;30;20053;-72
2023/02/10 01:18:42;;;;;;;18.65;7.28;;;;;;;-146.47;100.00;65468.63;4701139;30;20057;-73
2023/02/10 01:21:10;;;;;;;14.93;6.63;;;;;;;-146.47;100.00;65468.63;4709422;30;20053;-72
2023/02/10 01:23:35;;;;;;;17.88;7.55;;;;;;;-146.47;100.00;65468.63;4701302;30;20049;-73
2023/02/10 01:26:01;;;;;;;19.10;7.55;;;;;;;-146.47;100.00;65468.63;4703108;30;20119;-74
2023/02/10 01:28:27;;;;;;;15.75;7.55;;;;;;;-146.47;100.00;65468.63;4709845;30;20509;-74
2023/02/10 01:30:53;;;;;;;14.70;7.80;;;;;;;-146.47;100.00;65468.63;4706890;30;20194;-73
2023/02/10 01:33:18;;;;;;;12.70;6.65;;;;;;;-146.47;100.00;65468.63;4702311;30;20053;-72
2023/02/10 01:35:44;;;;;;;21.00;6.95;;;;;;;-146.47;100.00;65468.63;4697927;30;20046;-73
2023/02/10 01:38:09;;;;;;;17.73;6.53;;;;;;;-146.47;100.00;65468.63;4707272;30;20650;-73
2023/02/10 01:40:35;;;;;;;18.00;7.25;;;;;;;-146.47;100.00;65468.63;4702459;30;20076;-72
2023/02/10 01:43:01;;;;;;;19.63;7.43;;;;;;;-146.47;100.00;65468.63;4700501;30;20053;-72
2023/02/10 01:45:37;;;;;;;18.48;7.65;;;;;;;-146.47;100.00;65468.63;4708284;30;20558;-72
2023/02/10 01:48:03;;;;;;;14.02;7.03;;;;;;;-146.47;100.00;65468.63;4701374;30;20519;-73
2023/02/10 01:50:44;;;;;;;14.73;6.72;;;;;;;-146.47;100.00;65468.63;4698665;30;20037;-72
2023/02/10 01:53:10;;;;;;;13.13;7.20;;;;;;;-146.47;100.00;65468.63;4699415;30;20053;-73
2023/02/10 01:55:39;;;;;;;15.82;7.18;;;;;;;-146.47;100.00;65468.63;4697592;30;20041;-72
2023/02/10 01:58:10;;;;;;;12.98;6.13;;;;;;;-146.47;100.00;65468.63;4701380;30;20201;-72
2023/02/10 02:00:36;;;;;;;14.40;6.68;;;;;;;-146.47;100.00;65468.63;4701094;30;20045;-72
2023/02/10 02:03:03;;;;;;;12.85;6.35;;;;;;;-146.47;100.00;65468.63;4702213;30;20050;-72
2023/02/10 02:05:40;;;;;;;15.52;7.18;;;;;;;-146.47;100.00;65468.63;4703932;30;20054;-72
2023/02/10 02:08:15;;;;;;;16.92;6.57;;;;;;;-146.47;100.00;65468.63;4697540;30;20422;-72
2023/02/10 02:10:47;;;;;;;20.38;7.55;;;;;;;-146.47;100.00;65468.63;4704941;30;20049;-73
2023/02/10 02:13:26;;;;;;;20.15;8.52;;;;;;;-146.47;100.00;65468.63;4699794;30;20487;-72
2023/02/10 02:16:02;;;;;;;16.00;6.13;;;;;;;-146.47;100.00;65468.63;4702313;30;20407;-72
2023/02/10 02:19:12;;;;;;;16.08;5.75;;;;;;;-146.47;100.00;65468.63;4697211;30;20861;-73
2023/02/10 02:22:11;;;;;;;15.13;7.20;;;;;;;-146.47;100.00;65468.63;4713488;30;20069;-73
2023/02/10 02:24:58;;;;;;;18.42;7.97;;;;;;;-146.47;100.00;65468.63;4702811;30;20051;-72
2023/02/10 02:28:21;;;;;;;14.43;6.50;;;;;;;-146.47;100.00;65468.63;4698062;30;20103;-72
2023/02/10 02:31:15;;;;;;;14.13;7.15;;;;;;;-146.47;100.00;65468.63;4721968;30;20544;-72
2023/02/10 02:33:49;;;;;;;17.48;7.25;;;;;;;-146.47;100.00;65468.63;4717623;30;20519;-72
2023/02/10 02:36:29;;;;;;;14.23;6.60;;;;;;;-146.47;100.00;65468.63;4715524;30;20534;-72
2023/02/10 02:39:00;;;;;;;15.50;7.15;;;;;;;-146.47;100.00;65468.63;4697078;30;20053;-73
2023/02/10 02:41:26;;;;;;;12.70;5.93;;;;;;;-146.47;100.00;65468.63;4702064;30;20513;-72
2023/02/10 02:43:52;;;;;;;18.42;6.97;;;;;;;-146.47;100.00;65468.63;4703838;30;20056;-72
2023/02/10 02:46:25;;;;;;;14.07;6.82;;;;;;;-146.47;100.00;65468.63;4702243;30;20045;-72
2023/02/10 02:49:08;;;;;;;15.73;6.65;;;;;;;-146.47;100.00;65468.63;4696872;30;20053;-72
2023/02/10 02:51:42;;;;;;;14.35;6.90;;;;;;;-146.47;100.00;65468.63;4698058;30;20057;-73
2023/02/10 02:54:15;;;;;;;19.80;6.90;;;;;;;-146.47;100.00;65468.63;4706352;30;20067;-72
2023/02/10 02:56:49;;;;;;;13.45;6.40;;;;;;;-146.47;100.00;65468.63;4703017;30;20068;-73
2023/02/10 02:59:40;;;;;;;18.60;6.90;;;;;;;-146.47;100.00;65468.63;4696863;30;20508;-72
2023/02/10 03:02:13;;;;;;;18.33;8.00;;;;;;;-146.47;100.00;65468.63;4702196;30;20049;-72
2023/02/10 03:04:39;;;;;;;15.50;6.45;;;;;;;-146.47;100.00;65468.63;4699795;30;20627;-72
2023/02/10 03:07:05;;;;;;;23.02;6.45;;;;;;;-146.47;100.00;65468.63;4707319;30;20054;-72
2023/02/10 03:09:32;;;;;;;13.07;6.57;;;;;;;-146.47;100.00;65468.63;4696853;30;20107;-72
2023/02/10 03:11:57;;;;;;;11.95;6.25;;;;;;;-146.47;100.00;65468.63;4701134;30;20511;-72
2023/02/10 03:14:23;;;;;;;14.90;6.50;;;;;;;-146.47;100.00;65468.63;4698345;30;20107;-72
2023/02/10 03:16:49;;;;;;;12.13;6.63;;;;;;;-146.47;100.00;65468.63;4696092;30;20151;-72
2023/02/10 03:19:14;;;;;;;14.20;7.20;;;;;;;-146.47;100.00;65468.63;4696676;30;20499;-72
2023/02/10 03:21:40;;;;;;;21.17;7.20;;;;;;;-146.47;100.00;65468.63;4706548;30;20045;-72
2023/02/10 03:24:06;;;;;;;11.35;6.28;;;;;;;-146.47;100.00;65468.63;4696503;30;20060;-72
2023/02/10 03:26:31;;;;;;;14.55;6.70;;;;;;;-146.47;100.00;65468.63;4704976;30;20049;-72
2023/02/10 03:28:57;;;;;;;15.02;7.10;;;;;;;-146.47;100.00;65468.63;4709763;30;20511;-72
2023/02/10 03:31:22;;;;;;;15.32;7.20;;;;;;;-146.47;100.00;65468.63;4706452;30;20517;-72
2023/02/10 03:33:48;;;;;;;13.57;5.80;;;;;;;-146.47;100.00;65468.63;4704948;30;20061;-72
2023/02/10 03:36:14;;;;;;;14.35;6.68;;;;;;;-146.47;100.00;65468.63;4701287;30;20041;-73
2023/02/10 03:38:40;;;;;;;15.27;5.30;;;;;;;-146.47;100.00;65468.63;4699672;30;20045;-72
2023/02/10 03:41:06;;;;;;;14.57;5.88;;;;;;;-146.47;100.00;65468.63;4708289;30;20473;-72
2023/02/10 03:43:31;;;;;;;18.20;7.13;;;;;;;-146.47;100.00;65468.63;4700174;30;20053;-72
2023/02/10 03:46:01;;;;;;;15.88;6.00;;;;;;;-146.47;100.00;65468.63;4702912;30;20515;-72
2023/02/10 03:48:30;;;;;;;14.95;5.72;;;;;;;-146.47;100.00;65468.63;4708372;30;20048;-72
2023/02/10 03:51:00;;;;;;;15.55;6.57;;;;;;;-146.47;100.00;65468.63;4703135;30;20182;-72
2023/02/10 03:53:26;;;;;;;16.02;6.40;;;;;;;-146.47;100.00;65468.63;4699224;30;20049;-72
2023/02/10 03:55:52;;;;;;;13.93;7.25;;;;;;;-146.47;100.00;65468.63;4702838;30;20054;-72
2023/02/10 03:58:18;;;;;;;19.02;6.75;;;;;;;-146.47;100.00;65468.63;4703831;30;20653;-72
2023/02/10 04:00:43;;;;;;;18.75;6.70;;;;;;;-146.47;100.00;65468.63;4699458;30;20049;-72
2023/02/10 04:03:09;;;;;;;17.52;6.93;;;;;;;-146.47;100.00;65468.63;4703836;30;20057;-72
2023/02/10 04:05:34;;;;;;;18.13;6.78;;;;;;;-146.47;100.00;65468.63;4701794;30;20057;-72
2023/02/10 04:08:00;;;;;;;20.05;7.30;;;;;;;-146.47;100.00;65468.63;4704336;30;20112;-72
2023/02/10 04:10:26;;;;;;;12.85;5.97;;;;;;;-146.47;100.00;65468.63;4699103;30;20096;-72
2023/02/10 04:12:51;;;;;;;14.77;6.28;;;;;;;-146.47;100.00;65468.63;4709204;30;20057;-72
2023/02/10 04:15:17;;;;;;;15.32;6.63;;;;;;;-146.47;100.00;65468.63;4700692;30;20053;-72
2023/02/10 04:17:43;;;;;;;13.18;4.93;;;;;;;-146.47;100.00;65468.63;4710775;30;20053;-72
2023/02/10 04:20:09;;;;;;;12.52;5.32;;;;;;;-146.47;100.00;65468.63;4701030;30;20058;-72
2023/02/10 04:22:35;;;;;;;11.25;5.43;;;;;;;-146.47;100.00;65468.63;4704241;30;20131;-72
2023/02/10 04:25:00;;;;;;;11.68;5.68;;;;;;;-146.47;100.00;65468.63;4698901;30;20499;-73
2023/02/10 04:27:26;;;;;;;10.48;4.97;;;;;;;-146.47;100.00;65468.63;4701667;30;20046;-73
2023/02/10 04:29:51;;;;;;;12.25;6.20;;;;;;;-146.47;100.00;65468.63;4703352;30;20704;-72
2023/02/10 04:32:17;;;;;;;11.82;5.07;;;;;;;-146.47;100.00;65468.63;4704776;30;20041;-73
2023/02/10 04:34:42;;;;;;;16.58;5.90;;;;;;;-146.47;100.00;65468.63;4698915;30;20062;-72
2023/02/10 04:37:08;;;;;;;13.07;5.45;;;;;;;-146.47;100.00;65468.63;4701263;30;20510;-72
2023/02/10 04:39:34;;;;;;;11.50;5.40;;;;;;;-146.47;100.00;65468.63;4712069;30;20442;-72
2023/02/10 04:41:59;;;;;;;13.52;6.05;;;;;;;-146.47;100.00;65468.63;4698619;30;20049;-73
2023/02/10 04:44:25;;;;;;;15.48;5.93;;;;;;;-146.47;100.00;65468.63;4698520;30;20049;-72
2023/02/10 04:46:50;;;;;;;11.00;5.07;;;;;;;-146.47;100.00;65468.63;4699084;30;20049;-73
2023/02/10 04:49:16;;;;;;;14.93;6.03;;;;;;;-146.47;100.00;65468.63;4709817;30;20065;-72
2023/02/10 04:51:42;;;;;;;11.77;5.32;;;;;;;-146.47;100.00;65468.63;4701874;30;20046;-72
2023/02/10 04:54:08;;;;;;;13.93;6.18;;;;;;;-146.47;100.00;65468.63;4702469;30;20067;-73
2023/02/10 04:56:34;;;;;;;10.35;5.28;;;;;;;-146.47;100.00;65468.63;4699382;30;20434;-73
2023/02/10 04:58:59;;;;;;;12.85;5.55;;;;;;;-146.47;100.00;65468.63;4705729;30;20042;-73
2023/02/10 05:01:25;;;;;;;11.55;4.97;;;;;;;-146.47;100.00;65468.63;4705247;30;20053;-72
2023/02/10 05:03:50;;;;;;;12.52;5.13;;;;;;;-146.47;100.00;65468.63;4701827;30;20419;-72
2023/02/10 05:06:16;;;;;;;15.43;5.78;;;;;;;-146.47;100.00;65468.63;4699463;30;20431;-73
2023/02/10 05:08:43;;;;;;;10.32;4.88;;;;;;;-146.47;100.00;65468.63;4707766;30;20414;-73
2023/02/10 05:11:10;;;;;;;16.02;5.68;;;;;;;-146.47;100.00;65468.63;4706698;30;20044;-73
2023/02/10 05:13:36;;;;;;;11.60;4.95;;;;;;;-146.47;100.00;65468.63;4713078;30;20120;-73
2023/02/10 05:16:05;;;;;;;12.07;5.03;;;;;;;-146.47;100.00;65468.63;4697658;30;20146;-73
2023/02/10 05:18:32;;;;;;;15.35;5.22;;;;;;;-146.47;100.00;65468.63;4699685;30;20668;-73
2023/02/10 05:20:58;;;;;;;14.48;5.03;;;;;;;-146.47;100.00;65468.63;4704665;30;20107;-73
2023/02/10 05:23:24;;;;;;;17.08;5.05;;;;;;;-146.47;100.00;65468.63;4700022;30;20064;-72
2023/02/10 05:25:50;;;;;;;11.60;5.15;;;;;;;-146.47;100.00;65468.63;4705349;30;20056;-72
2023/02/10 05:28:15;;;;;;;12.68;5.55;;;;;;;-146.47;100.00;65468.63;4700202;30;20049;-72
2023/02/10 05:30:41;;;;;;;11.52;5.03;;;;;;;-146.47;100.00;65468.63;4698357;30;20061;-73
2023/02/10 05:33:07;;;;;;;11.77;5.55;;;;;;;-146.47;100.00;65468.63;4705637;30;20087;-72
2023/02/10 05:35:32;;;;;;;11.60;5.15;;;;;;;-146.47;100.00;65468.63;4696749;30;20079;-72
2023/02/10 05:37:58;;;;;;;11.30;5.10;;;;;;;-146.47;100.00;65468.63;4697651;30;20057;-72
2023/02/10 05:40:24;;;;;;;12.02;5.65;;;;;;;-146.47;100.00;65468.63;4707864;30;20630;-72
2023/02/10 05:42:49;;;;;;;11.48;5.35;;;;;;;-146.47;100.00;65468.63;4697164;30;20045;-73
2023/02/10 05:45:15;;;;;;;14.18;5.40;;;;;;;-146.47;100.00;65468.63;4697919;30;20559;-72
2023/02/10 05:47:40;;;;;;;10.80;5.60;;;;;;;-146.47;100.00;65468.63;4702960;30;20058;-73
2023/02/10 05:50:07;;;;;;;18.13;5.82;;;;;;;-146.47;100.00;65468.63;4708541;30;20557;-72
2023/02/10 05:52:32;;;;;;;15.13;5.68;;;;;;;-146.47;100.00;65468.63;4697342;30;20462;-73
2023/02/10 05:54:58;;;;;;;15.35;5.35;;;;;;;-146.47;100.00;65468.63;4708819;30;20055;-73
2023/02/10 05:57:23;;;;;;;8.85;5.00;;;;;;;-146.47;100.00;65468.63;4708629;30;20056;-74
2023/02/10 05:59:49;;;;;;;14.82;5.45;;;;;;;-146.47;100.00;65468.63;4714643;30;20142;-74
2023/02/10 06:02:14;;;;;;;12.25;5.88;;;;;;;-146.47;100.00;65468.63;4705288;30;20097;-74
2023/02/10 06:04:40;;;;;;;13.40;5.97;;;;;;;-146.47;100.00;65468.63;4697747;30;20049;-74
2023/02/10 06:07:06;;;;;;;24.00;7.40;;;;;;;-146.47;100.00;65468.63;4709325;30;20566;-76
2023/02/10 06:09:31;;;;;;;17.80;6.25;;;;;;;-146.47;100.00;65468.63;4707161;30;20049;-75
2023/02/10 06:11:57;;;;;;;12.63;5.43;;;;;;;-146.47;100.00;65468.63;4713167;30;20053;-75
2023/02/10 06:14:23;;;;;;;13.50;5.90;;;;;;;-146.47;100.00;65468.63;4698144;30;20069;-75
2023/02/10 06:16:48;;;;;;;14.57;6.45;;;;;;;-146.47;100.00;65468.63;4702455;30;20107;-75
2023/02/10 06:19:14;;;;;;;15.18;4.95;;;;;;;-146.47;100.00;65468.63;4704747;30;20131;-75
2023/02/10 06:21:39;;;;;;;14.73;5.93;;;;;;;-146.47;100.00;65468.63;4703109;30;20045;-76
2023/02/10 06:24:05;;;;;;;9.95;4.82;;;;;;;-146.47;100.00;65468.63;4698265;30;20057;-77
2023/02/10 06:26:30;;;;;;;8.85;4.93;;;;;;;-146.47;100.00;65468.63;4696595;30;20057;-74
2023/02/10 06:28:56;;;;;;;14.27;5.93;;;;;;;-146.47;100.00;65468.63;4706848;30;20107;-74
2023/02/10 06:31:22;;;;;;;12.32;5.75;;;;;;;-146.47;100.00;65468.63;4700034;30;20072;-74
2023/02/10 06:33:47;;;;;;;12.15;5.47;;;;;;;-146.47;100.00;65468.63;4703939;30;20474;-76
2023/02/10 06:36:13;;;;;;;12.80;5.78;;;;;;;-146.47;100.00;65468.63;4706356;30;20116;-74
2023/02/10 06:38:39;;;;;;;15.43;5.43;;;;;;;-146.47;100.00;65468.63;4697815;30;20120;-74
2023/02/10 06:41:05;;;;;;;17.58;5.80;;;;;;;-146.47;100.00;65468.63;4700511;30;20080;-74
2023/02/10 06:43:31;;;;;;;15.18;5.38;;;;;;;-146.47;100.00;65468.63;4697369;30;20049;-74
2023/02/10 06:45:56;;;;;;;12.80;6.25;;;;;;;-146.47;100.00;65468.63;4707471;30;20045;-74
2023/02/10 06:48:22;;;;;;;12.75;5.85;;;;;;;-146.47;100.00;65468.63;4710695;30;20053;-75
2023/02/10 06:50:47;;;;;;;12.05;5.72;;;;;;;-146.47;100.00;65468.63;4697641;30;20053;-73
2023/02/10 06:53:13;;;;;;;12.10;6.07;;;;;;;-146.47;100.00;65468.63;4703206;30;20060;-74
2023/02/10 06:55:38;;;;;;;11.63;5.15;;;;;;;-146.47;100.00;65468.63;4710797;30;20041;-73
2023/02/10 06:58:04;;;;;;;13.75;6.30;;;;;;;-146.47;100.00;65468.63;4702320;30;20049;-75
2023/02/10 07:00:33;;;;;;;16.70;4.90;;;;;;;-146.47;100.00;65468.63;4700443;30;20049;-77
2023/02/10 07:02:59;;;;;;;14.15;5.75;;;;;;;-146.47;100.00;65468.63;4706535;30;20053;-73
2023/02/10 07:05:24;;;;;;;11.63;5.18;;;;;;;-146.47;100.00;65468.63;4703504;30;20046;-74
2023/02/10 07:07:50;;;;;;;12.20;5.05;;;;;;;-146.47;100.00;65468.63;4698534;30;20057;-75
2023/02/10 07:10:17;;;;;;;12.07;5.72;;;;;;;-146.47;100.00;65468.63;4699979;30;20100;-73
2023/02/10 07:12:43;;;;;;;14.35;4.97;;;;;;;-146.47;100.00;65468.63;4702618;30;20054;-74
2023/02/10 07:15:09;;;;;;;14.43;6.22;;;;;;;-146.47;100.00;65468.63;4710239;30;20044;-74
2023/02/10 07:17:36;;;;;;;13.82;5.28;;;;;;;-146.47;100.00;65468.63;4707783;30;20521;-74
2023/02/10 07:20:03;;;;;;;10.25;4.93;;;;;;;-146.47;100.00;65468.63;4719635;30;20572;-73
2023/02/10 07:22:28;;;;;;;11.75;5.75;;;;;;;-146.47;100.00;65468.63;4707354;30;20050;-75
2023/02/10 07:24:54;;;;;;;9.23;4.50;;;;;;;-146.47;100.00;65468.63;4704477;30;20427;-75
2023/02/10 07:27:19;;;;;;;29.42;6.35;;;;;;;-146.47;100.00;65468.63;4709107;30;20605;-75
2023/02/10 07:29:45;;;;;;;27.00;5.63;;;;;;;-146.47;100.00;65468.63;4710098;30;20056;-75
2023/02/10 07:32:11;;;;;;;21.95;5.47;;;;;;;-146.47;100.00;65468.63;4714307;30;20052;-75
2023/02/10 07:34:36;;;;;;;12.07;5.05;;;;;;;-146.47;100.00;65468.63;4711700;30;20041;-76
2023/02/10 07:37:02;;;;;;;13.63;5.63;;;;;;;-146.47;100.00;65468.63;4714431;30;20569;-76
2023/02/10 07:39:27;;;;;;;10.90;5.07;;;;;;;-146.47;100.00;65468.63;4706886;30;20525;-74
2023/02/10 07:41:53;;;;;;;12.85;5.50;;;;;;;-146.47;100.00;65468.63;4704205;30;20056;-74
2023/02/10 07:44:20;;;;;;;11.98;5.40;;;;;;;-146.47;100.00;65468.63;4718582;30;20521;-74
2023/02/10 07:46:47;;;;;;;14.30;5.10;;;;;;;-146.47;100.00;65468.63;4717303;30;20135;-74
2023/02/10 07:49:13;;;;;;;12.10;5.22;;;;;;;-146.47;100.00;65468.63;4713822;30;20069;-74
2023/02/10 07:51:39;;;;;;;15.00;5.40;;;;;;;-146.47;100.00;65468.63;4710209;30;20163;-74
2023/02/10 07:54:05;;;;;;;9.40;4.25;;;;;;;-146.47;100.00;65468.63;4700673;30;20065;-74
2023/02/10 07:56:32;;;;;;;11.27;5.10;;;;;;;-146.47;100.00;65468.63;4708089;30;20049;-74
2023/02/10 07:58:57;;;;;;;10.63;4.90;;;;;;;-146.47;100.00;65468.63;4705255;30;20045;-74
2023/02/10 08:01:23;;;;;;;11.32;5.55;;;;;;;-146.47;100.00;65468.63;4698803;30;20057;-74
2023/02/10 08:03:48;;;;;;;10.02;4.70;;;;;;;-146.47;100.00;65468.63;4709025;30;20050;-74
2023/02/10 08:06:22;;;;;;;24.48;5.43;;;;;;;-146.47;100.00;65468.63;4699434;30;20056;-73
2023/02/10 08:08:48;;;;;;;10.85;5.18;;;;;;;-146.47;100.00;65468.63;4696608;30;20124;-74
2023/02/10 08:11:14;;;;;;;15.57;5.13;;;;;;;-146.47;100.00;65468.63;4707597;30;20061;-73
2023/02/10 08:13:40;;;;;;;10.30;4.60;;;;;;;-146.47;100.00;65468.63;4699296;30;20050;-73
2023/02/10 08:16:07;;;;;;;9.93;4.88;;;;;;;-146.47;100.00;65468.63;4704046;30;20538;-73
2023/02/10 08:18:34;;;;;;;11.32;4.93;;;;;;;-146.47;100.00;65468.63;4700735;30;20054;-73
2023/02/10 08:21:00;;;;;;;11.27;4.72;;;;;;;-146.47;100.00;65468.63;4700305;30;20041;-73
2023/02/10 08:23:26;;;;;;;12.23;4.90;;;;;;;-146.47;100.00;65468.63;4705146;30;20053;-73
2023/02/10 08:25:51;;;;;;;12.02;4.68;;;;;;;-146.47;100.00;65468.63;4705898;30;20678;-73
2023/02/10 08:28:17;;;;;;;11.85;5.65;;;;;;;-146.47;100.00;65468.63;4710269;30;20049;-73
2023/02/10 08:30:43;;;;;;;14.23;5.32;;;;;;;-146.47;100.00;65468.63;4705113;30;20094;-73
2023/02/10 08:33:08;;;;;;;13.40;5.47;;;;;;;-146.47;100.00;65468.63;4710797;30;20041;-74
2023/02/10 08:35:36;;;;;;;10.73;5.40;;;;;;;-146.47;100.00;65468.63;4705398;30;20061;-73
2023/02/10 08:38:02;;;;;;;13.93;5.43;;;;;;;-146.47;100.00;65468.63;4705506;30;20107;-73
2023/02/10 08:40:28;;;;;;;12.63;5.85;;;;;;;-146.47;100.00;65468.63;4706428;30;20436;-73
2023/02/10 08:42:53;;;;;;;10.77;4.57;;;;;;;-146.47;100.00;65468.63;4702682;30;20131;-73
2023/02/10 08:45:19;;;;;;;12.85;5.47;;;;;;;-146.47;100.00;65468.63;4704226;30;20057;-73
2023/02/10 08:47:45;;;;;;;10.82;4.68;;;;;;;-146.47;100.00;65468.63;4708220;30;20057;-73
2023/02/10 08:50:10;;;;;;;11.63;5.18;;;;;;;-146.47;100.00;65468.63;4699407;30;20100;-74
2023/02/10 08:52:36;;;;;;;15.13;5.85;;;;;;;-146.47;100.00;65468.63;4707379;30;20096;-73
2023/02/10 08:55:02;;;;;;;21.45;5.65;;;;;;;-146.47;100.00;65468.63;4698640;30;20045;-73
2023/02/10 08:57:28;;;;;;;13.57;5.93;;;;;;;-146.47;100.00;65468.63;4699016;30;20057;-73
2023/02/10 08:59:53;;;;;;;15.13;6.90;;;;;;;-146.47;100.00;65468.63;4698861;30;20215;-74
2023/02/10 09:02:19;;;;;;;17.75;6.38;;;;;;;-146.47;100.00;65468.63;4703141;30;20053;-74
2023/02/10 09:04:45;;;;;;;16.63;5.85;;;;;;;-146.47;100.00;65468.63;4698853;30;20422;-74
2023/02/10 09:07:11;;;;;;;17.52;6.22;;;;;;;-146.47;100.00;65468.63;4698765;30;20063;-74
2023/02/10 09:09:40;;;;;;;12.75;6.13;;;;;;;-146.47;100.00;65468.63;4704378;30;20214;-75
2023/02/10 09:12:06;;;;;;;20.38;6.75;;;;;;;-146.47;100.00;65468.63;4703544;30;20116;-75
2023/02/10 09:14:32;;;;;;;18.35;7.15;;;;;;;-146.47;100.00;65468.63;4699550;30;20107;-75
2023/02/10 09:16:58;;;;;;;19.83;7.72;;;;;;;-146.47;100.00;65468.63;4704292;30;20676;-75
2023/02/10 09:19:24;;;;;;;20.10;8.48;;;;;;;-146.47;100.00;65468.63;4698600;30;20057;-75
2023/02/10 09:21:50;;;;;;;22.83;7.97;;;;;;;-146.47;100.00;65468.63;4702438;30;20129;-75
2023/02/10 09:24:16;;;;;;;14.63;6.93;;;;;;;-146.47;100.00;65468.63;4702610;30;20121;-75
2023/02/10 09:26:42;;;;;;;15.98;7.20;;;;;;;-146.47;100.00;65468.63;4705706;30;20061;-76
2023/02/10 09:29:08;;;;;;;19.48;6.90;;;;;;;-146.47;100.00;65468.63;4698523;30;20053;-76
2023/02/10 09:31:34;;;;;;;16.10;7.25;;;;;;;-146.47;100.00;65468.63;4700012;30;20104;-73
2023/02/10 09:34:00;;;;;;;17.55;7.85;;;;;;;-146.47;100.00;65468.63;4704798;30;20048;-74
2023/02/10 09:36:25;;;;;;;20.77;9.18;;;;;;;-146.47;100.00;65468.63;4700210;30;20053;-74
2023/02/10 09:38:51;;;;;;;18.58;8.05;;;;;;;-146.47;100.00;65468.63;4698391;30;20132;-74
2023/02/10 09:41:35;;;;;;;16.55;7.40;;;;;;;-146.47;100.00;65468.63;4697746;30;20053;-74
2023/02/10 09:44:00;;;;;;;15.63;7.67;;;;;;;-146.47;100.00;65468.63;4699545;30;20065;-75
2023/02/10 09:46:54;;;;;;;19.38;8.55;;;;;;;-146.47;100.00;65468.63;4700362;30;20537;-77
2023/02/10 09:49:33;;;;;;;29.17;9.18;;;;;;;-146.47;100.00;65468.63;4700558;30;20128;-75
2023/02/10 09:52:19;;;;;;;16.75;7.78;;;;;;;-146.47;100.00;65468.63;4706738;30;20489;-79
2023/02/10 09:54:46;;;;;;;21.67;9.07;;;;;;;-146.47;100.00;65468.63;4710316;30;20054;-77
2023/02/10 09:57:19;;;;;;;23.08;9.77;;;;;;;-146.47;100.00;65468.63;4712605;30;20400;-78
2023/02/10 09:59:49;;;;;;;25.73;10.32;;;;;;;-146.47;100.00;65468.63;4705617;30;20056;-78
2023/02/10 10:02:32;;;;;;;22.58;9.50;;;;;;;-146.47;100.00;65468.63;4705765;30;20045;-78
2023/02/10 10:05:00;;;;;;;30.90;12.07;;;;;;;-146.47;100.00;65468.63;4702705;30;20053;-79
2023/02/10 10:07:35;;;;;;;23.05;10.50;;;;;;;-146.47;100.00;65468.63;4711744;30;20053;-80
2023/02/10 10:10:12;;;;;;;27.27;11.25;;;;;;;-146.47;100.00;65468.63;4700301;30;20057;-80
2023/02/10 10:12:38;;;;;;;23.17;10.02;;;;;;;-146.47;100.00;65468.63;4702168;30;20049;-81
2023/02/10 10:15:14;;;;;;;26.90;10.57;;;;;;;-146.47;100.00;65468.63;4698047;30;20061;-81
2023/02/10 10:17:48;;;;;;;26.33;11.35;;;;;;;-146.47;100.00;65468.63;4698203;30;20049;-81
2023/02/10 10:20:38;;;;;;;26.52;11.13;;;;;;;-146.47;100.00;65468.63;4700142;30;20053;-81
2023/02/10 10:23:19;;;;;;;27.58;10.80;;;;;;;-146.47;100.00;65468.63;4699557;30;20470;-80
2023/02/10 10:25:57;;;;;;;28.48;12.30;;;;;;;-146.47;100.00;65468.63;4700364;30;20086;-82
2023/02/10 10:28:40;;;;;;;26.67;11.93;;;;;;;-146.47;100.00;65468.63;4705158;30;20057;-80
2023/02/10 10:31:27;;;;;;;25.30;11.30;;;;;;;-146.47;100.00;65468.63;4707520;30;20029;-81
2023/02/10 10:34:01;;;;;;;24.90;11.95;;;;;;;-146.47;100.00;65468.63;4727262;30;20340;-81
2023/02/10 10:36:33;;;;;;;29.33;13.40;;;;;;;-146.47;100.00;65468.63;4737410;30;20048;-79
2023/02/10 10:39:06;;;;;;;27.73;11.73;;;;;;;-146.47;100.00;65468.63;4729353;30;20053;-80
2023/02/10 10:41:37;;;;;;;24.58;12.23;;;;;;;-146.47;100.00;65468.63;4733490;30;20044;-78
2023/02/10 10:44:03;;;;;;;25.15;11.80;;;;;;;-146.47;100.00;65468.63;4729801;30;20045;-79
2023/02/10 10:46:41;;;;;;;33.40;13.65;;;;;;;-146.47;100.00;65468.63;4736129;30;20053;-78
2023/02/10 10:49:06;;;;;;;30.58;13.02;;;;;;;-146.47;100.00;65468.63;4734901;30;20029;-79
2023/02/10 10:51:34;;;;;;;35.63;13.45;;;;;;;-146.47;100.00;65468.63;4732499;30;20033;-77
2023/02/10 10:54:00;;;;;;;30.15;14.32;;;;;;;-146.47;100.00;65468.63;4740952;30;20041;-76
2023/02/10 10:56:34;;;;;;;27.17;13.40;;;;;;;-146.47;100.00;65468.63;4713203;30;20103;-75
2023/02/10 10:59:02;;;;;;;29.30;13.43;;;;;;;-146.47;100.00;65468.63;4715220;30;20056;-77
2023/02/10 11:01:35;;;;;;;25.65;12.75;;;;;;;-146.47;100.00;65468.63;4707806;30;20049;-77
2023/02/10 11:04:16;;;;;;;33.53;12.98;;;;;;;-146.47;100.00;65468.63;4713998;30;20056;-76
2023/02/10 11:06:44;;;;;;;26.67;12.48;;;;;;;-146.47;100.00;65468.63;4709259;30;20050;-76